Nearby METAR Reports

 

KMNN - Marion, Ohio, USA
Distance from station: ENE 4mi, 6km
Updated: 07/21/2019 7:53am
Mostly cloudy
Mostly cloudy
 Wind from WSW
Wind: WSW 6 mph , 9 km/h
Temperature: 81°F , 27°C
Heat Index: 86°F , 30°C
Dew Point: 73°F , 23°C
Humidity: 79%
Barometer: 29.96 inHg , 1014.6 hPa
Clouds: Mostly cloudy
Visibility: 7 miles , 11 km
Cloud details: Partly cloudy 3600 ft
Partly cloudy 5000 ft
Mostly cloudy 7500 ft
2019/07/21 11:53 KMNN 211153Z AUTO 24005KT 7SM SCT036 SCT050 BKN075 27/23 A2996 RMK AO2 SLP136 T02670228 10272 20250 51008
KDLZ - Delaware, Ohio, USA
Distance from station: S 21mi, 34km
Updated: 07/21/2019 8:35am
Clear
Clear
 Wind from W
Wind: W 6 mph , 9 km/h
Temperature: 81°F , 27°C
Heat Index: 86°F , 30°C
Dew Point: 73°F , 23°C
Humidity: 79%
Barometer: 29.97 inHg , 1014.9 hPa
Clouds: Clear
Visibility: 10 miles , 16 km
2019/07/21 12:35 KDLZ 211235Z AUTO 27005KT 10SM CLR 27/23 A2997 RMK AO2
 
KMRT - Marysville, Ohio, USA
Distance from station: SSW 28mi, 45km
Updated: 07/21/2019 8:35am
Clear
Clear
 Wind from W
Wind: W 6 mph , 9 km/h
Temperature: 81°F , 27°C
Heat Index: 86°F , 30°C
Dew Point: 73°F , 23°C
Humidity: 79%
Barometer: 29.98 inHg , 1015.2 hPa
Clouds: Clear
Visibility: 10 miles , 16 km
2019/07/21 12:35 KMRT 211235Z AUTO 27005KT 10SM CLR 27/23 A2998 RMK AO2 T02680233
KOSU - Columbus/St Univ, Ohio, USA
Distance from station: S 35mi, 56km
Updated: 07/21/2019 7:53am
Clear
Clear
 Wind from WSW
Wind: WSW 6 mph , 9 km/h
Temperature: 79°F , 26°C
Dew Point: 73°F , 23°C
Humidity: 84%
Barometer: 29.97 inHg , 1014.9 hPa
Clouds: Clear
Visibility: 7 miles , 11 km
2019/07/21 11:53 KOSU 211153Z 24005KT 7SM CLR 26/23 A2997 RMK AO2 SLP138 T02610233 10272 20239 51014
 
KMFD - Mansfield, Ohio, USA
Distance from station: ENE 36mi, 57km
Updated: 07/21/2019 7:52am
Few Clouds
Few Clouds
 Wind from W
Wind: W 3 mph , 6 km/h
Temperature: 79°F , 26°C
Dew Point: 75°F , 24°C
Humidity: 89%
Barometer: 29.97 inHg , 1014.9 hPa
Clouds: Few Clouds
Visibility: 8 miles , 13 km
Cloud details: Few Clouds 7000 ft
2019/07/21 11:52 KMFD 211152Z 27003KT 8SM FEW070 26/24 A2997 RMK AO2 RAB23E35 SLP135 P0000 60000 T02610244 10272 20244 50008
K4I3 - Mt Vernon/Knox, Ohio, USA
Distance from station: ESE 36mi, 58km
Updated: 07/21/2019 8:15am
Clear
Clear
 Wind from W
Wind: W 3 mph , 6 km/h
Temperature: 81°F , 27°C
Heat Index: 88°F , 31°C
Dew Point: 77°F , 25°C
Humidity: 89%
Barometer: 29.99 inHg , 1015.6 hPa
Clouds: Clear
Visibility: 10 miles , 16 km
2019/07/21 12:15 K4I3 211215Z AUTO 27003KT 10SM CLR 27/25 A2999 RMK AO2
 
KEDJ - Bellefontaine, Ohio, USA
Distance from station: WSW 39mi, 63km
Updated: 07/21/2019 8:35am
Clear
Clear
 Wind from WSW
Wind: WSW 6 mph , 9 km/h
Temperature: 77°F , 25°C
Dew Point: 75°F , 24°C
Humidity: 94%
Barometer: 29.99 inHg , 1015.6 hPa
Clouds: Clear
Visibility: 10 miles , 16 km
2019/07/21 12:35 KEDJ 211235Z AUTO 25005KT 10SM CLR 25/24 A2999 RMK AO1
KFDY - Findlay, Ohio, USA
Distance from station: NW 41mi, 66km
Updated: 07/21/2019 8:20am
Mostly cloudy
Mostly cloudy
 Wind from NNW
Wind: NNW 5 mph , 7 km/h
Temperature: 81°F , 27°C
Heat Index: 87°F , 31°C
Dew Point: 75°F , 24°C
Humidity: 84%
Barometer: 29.95 inHg , 1014.2 hPa
Clouds: Mostly cloudy
Visibility: 10 miles , 16 km
Cloud details: Mostly cloudy 1700 ft
2019/07/21 12:20 KFDY 211220Z AUTO 33004KT 10SM BKN017 27/24 A2995 RMK AO2 T02720239
 
KCMH - Columbus, Ohio, USA
Distance from station: SSE 43mi, 69km
Updated: 07/21/2019 7:51am
Few Clouds
Few Clouds
 Wind from SSE
Wind: SSE 5 mph , 7 km/h
Temperature: 79°F , 26°C
Dew Point: 72°F , 22°C
Humidity: 79%
Barometer: 29.96 inHg , 1014.6 hPa
Clouds: Few Clouds
Visibility: 7 miles , 11 km
Cloud details: Few Clouds 4900 ft
Few Clouds 25000 ft
2019/07/21 11:51 KCMH 211151Z 16004KT 7SM FEW049 FEW250 26/22 A2996 RMK AO2 SLP138 T02560222 10272 20239 51014
KAOH - Lima, Ohio, USA
Distance from station: W 47mi, 76km
Updated: 07/21/2019 7:53am
Clear
Clear
 Wind from WSW
Wind: WSW 7 mph , 11 km/h
Temperature: 81°F , 27°C
Heat Index: 87°F , 31°C
Dew Point: 75°F , 24°C
Humidity: 84%
Barometer: 29.96 inHg , 1014.6 hPa
Clouds: Clear
Visibility: 10 miles , 16 km
2019/07/21 11:53 KAOH 211153Z AUTO 25006KT 10SM CLR 27/24 A2996 RMK AO2 SLP134 T02670239 10267 20244 51013
 
KTZR - Columbus/Bolton, Ohio, USA
Distance from station: S 48mi, 77km
Updated: 07/21/2019 7:50am
Mist, Clear
Mist, Clear
 Wind from calm
Wind: Calm
Temperature: 77°F , 25°C
Dew Point: 75°F , 24°C
Humidity: 94%
Barometer: 29.98 inHg , 1015.2 hPa
Summary: Mist
Clouds: Clear
Visibility: 5 miles , 8 km
2019/07/21 11:50 KTZR 211150Z 00000KT 5SM BR SKC 25/24 A2998
KUYF - London, Ohio, USA
Distance from station: SSW 49mi, 78km
Updated: 07/21/2019 8:15am
Clear
Clear
 Wind from WSW
Wind: WSW 6 mph , 9 km/h
Temperature: 79°F , 26°C
Dew Point: 77°F , 25°C
Humidity: 94%
Barometer: 29.99 inHg , 1015.6 hPa
Clouds: Clear
Visibility: 10 miles , 16 km
2019/07/21 12:15 KUYF 211215Z AUTO 25005KT 10SM CLR 26/25 A2999 RMK AO2